createdAt,value
2023-05-10T00:00:51.978Z,45.87
2023-05-10T00:01:51.991Z,44.23
2023-05-10T00:02:52.169Z,45.08
2023-05-10T00:03:52.013Z,47.06
2023-05-10T00:04:51.966Z,47.12
2023-05-10T00:05:51.952Z,46.13
2023-05-10T00:06:51.964Z,46.68
2023-05-10T00:07:51.986Z,49.90
2023-05-10T00:08:51.990Z,51.01
2023-05-10T00:09:51.974Z,49.55
2023-05-10T00:10:51.969Z,49.51
2023-05-10T00:11:51.989Z,48.56
2023-05-10T00:12:52.050Z,50.55
2023-05-10T00:13:51.965Z,50.74
2023-05-10T00:14:51.994Z,50.90
2023-05-10T00:15:51.972Z,50.20
2023-05-10T00:16:52.112Z,51.09
2023-05-10T00:17:52.056Z,50.26
2023-05-10T00:18:51.989Z,51.71
2023-05-10T00:19:51.953Z,48.62
2023-05-10T00:20:51.958Z,49.96
2023-05-10T00:21:51.941Z,51.70
2023-05-10T00:22:51.948Z,53.20
2023-05-10T00:23:51.968Z,55.10
2023-05-10T00:24:51.966Z,53.59
2023-05-10T00:25:51.959Z,54.18
2023-05-10T00:26:51.956Z,55.30
2023-05-10T00:27:51.954Z,55.59
2023-05-10T00:28:51.933Z,56.03
2023-05-10T00:29:51.949Z,55.10
2023-05-10T00:30:51.938Z,54.95
2023-05-10T00:31:51.999Z,52.91
2023-05-10T00:32:52.021Z,55.11
2023-05-10T00:33:51.944Z,56.03
2023-05-10T00:34:51.926Z,55.81
2023-05-10T00:35:51.944Z,56.42
2023-05-10T00:36:51.946Z,56.39
2023-05-10T00:37:51.921Z,55.76
2023-05-10T00:38:51.932Z,56.44
2023-05-10T00:39:51.919Z,57.44
2023-05-10T00:40:51.931Z,56.81
2023-05-10T00:41:51.961Z,57.64
2023-05-10T00:42:51.963Z,58.11
2023-05-10T00:43:51.932Z,59.03
2023-05-10T00:44:51.897Z,58.29
2023-05-10T00:45:51.983Z,58.81
2023-05-10T00:46:51.930Z,57.32
2023-05-10T00:47:51.942Z,56.81
2023-05-10T00:48:51.908Z,55.10
2023-05-10T00:49:51.905Z,52.77
2023-05-10T00:50:51.873Z,52.31
2023-05-10T00:51:51.881Z,51.45
2023-05-10T00:52:51.892Z,48.99
2023-05-10T00:53:51.879Z,50.21
2023-05-10T00:54:51.881Z,50.44
2023-05-10T00:55:51.865Z,50.91
2023-05-10T00:56:51.855Z,47.59
2023-05-10T00:57:51.867Z,49.32
2023-05-10T00:58:51.870Z,49.58
2023-05-10T00:59:51.851Z,47.79
2023-05-10T01:00:51.841Z,48.54
2023-05-10T01:01:51.826Z,49.81
2023-05-10T01:02:51.943Z,53.23
2023-05-10T01:03:51.778Z,54.07
2023-05-10T01:04:51.832Z,52.47
2023-05-10T01:05:51.794Z,52.52
2023-05-10T01:06:51.769Z,50.94
2023-05-10T01:07:51.801Z,50.85
2023-05-10T01:08:51.766Z,50.30
2023-05-10T01:09:51.767Z,51.19
2023-05-10T01:10:51.752Z,50.64
2023-05-10T01:11:51.732Z,50.92
2023-05-10T01:12:51.780Z,54.08
2023-05-10T01:13:51.719Z,54.07
2023-05-10T01:14:51.729Z,55.88
2023-05-10T01:15:51.774Z,57.72
2023-05-10T01:16:51.778Z,57.42
2023-05-10T01:17:52.036Z,56.20
2023-05-10T01:18:51.668Z,57.84
2023-05-10T01:19:51.695Z,58.32
2023-05-10T01:20:51.674Z,55.91
2023-05-10T01:21:51.700Z,57.03
2023-05-10T01:22:51.693Z,58.58
2023-05-10T01:23:51.678Z,59.03
2023-05-10T01:24:51.696Z,61.54
2023-05-10T01:25:51.677Z,64.38
2023-05-10T01:26:51.652Z,70.59
2023-05-10T01:27:51.658Z,77.08
2023-05-10T01:28:51.663Z,78.97
2023-05-10T01:30:05.085Z,84.52
2023-05-10T01:30:52.596Z,84.68
2023-05-10T01:31:51.602Z,85.17
2023-05-10T01:32:51.659Z,85.50
2023-05-10T01:33:51.487Z,86.90
2023-05-10T01:34:51.475Z,90.62
2023-05-10T01:35:51.449Z,96.20
2023-05-10T01:36:51.379Z,99.68
2023-05-10T01:37:51.350Z,100.49
2023-05-10T01:38:51.292Z,101.81
2023-05-10T01:39:51.271Z,98.45
2023-05-10T01:40:51.202Z,101.65
2023-05-10T01:41:51.190Z,104.74
2023-05-10T01:42:51.153Z,105.75
2023-05-10T01:43:51.188Z,104.74
2023-05-10T01:44:51.188Z,104.98
2023-05-10T01:45:51.206Z,106.91
2023-05-10T01:46:51.264Z,105.78
2023-05-10T01:47:51.212Z,104.79
2023-05-10T01:48:51.229Z,104.35
2023-05-10T01:49:51.204Z,105.40
2023-05-10T01:50:51.225Z,106.78
2023-05-10T01:51:51.236Z,106.89
2023-05-10T01:52:51.272Z,108.28
2023-05-10T01:53:51.283Z,109.28
2023-05-10T01:54:51.307Z,111.01
2023-05-10T01:55:51.310Z,106.84
2023-05-10T01:56:51.335Z,103.91
2023-05-10T01:57:51.300Z,107.71
2023-05-10T01:58:51.331Z,108.88
2023-05-10T01:59:51.332Z,113.20
2023-05-10T02:00:51.369Z,113.88
2023-05-10T02:01:51.368Z,110.28
2023-05-10T02:02:51.470Z,109.74
2023-05-10T02:03:51.446Z,111.03
2023-05-10T02:04:51.452Z,113.95
2023-05-10T02:05:51.475Z,109.27
2023-05-10T02:06:51.471Z,107.76
2023-05-10T02:07:51.516Z,108.76
2023-05-10T02:08:51.487Z,115.41
2023-05-10T02:09:51.497Z,114.54
2023-05-10T02:10:51.469Z,111.57
2023-05-10T02:11:51.482Z,109.66
2023-05-10T02:12:51.551Z,109.04
2023-05-10T02:13:51.521Z,110.88
2023-05-10T02:14:51.528Z,113.92
2023-05-10T02:15:51.563Z,115.66
2023-05-10T02:16:51.651Z,116.10
2023-05-10T02:17:51.647Z,109.11
2023-05-10T02:18:51.637Z,100.52
2023-05-10T02:19:51.618Z,95.89
2023-05-10T02:20:51.623Z,93.70
2023-05-10T02:21:51.640Z,92.86
2023-05-10T02:22:51.711Z,90.51
2023-05-10T02:23:51.679Z,84.91
2023-05-10T02:24:51.670Z,80.25
2023-05-10T02:25:51.709Z,78.03
2023-05-10T02:26:51.685Z,77.20
2023-05-10T02:27:51.707Z,76.45
2023-05-10T02:28:51.737Z,77.22
2023-05-10T02:29:51.706Z,75.79
2023-05-10T02:30:51.718Z,76.84
2023-05-10T02:31:51.769Z,74.58
2023-05-10T02:32:51.861Z,73.00
2023-05-10T02:33:51.791Z,72.03
2023-05-10T02:34:51.808Z,69.10
2023-05-10T02:35:51.864Z,66.28
2023-05-10T02:36:51.841Z,68.92
2023-05-10T02:37:51.902Z,69.44
2023-05-10T02:38:51.918Z,66.36
2023-05-10T02:39:51.922Z,62.13
2023-05-10T02:40:51.942Z,60.98
2023-05-10T02:41:51.935Z,58.93
2023-05-10T02:42:51.969Z,56.58
2023-05-10T02:43:51.939Z,53.16
2023-05-10T02:44:51.964Z,53.31
2023-05-10T02:45:52.059Z,52.86
2023-05-10T02:46:51.984Z,52.46
2023-05-10T02:47:52.037Z,50.71
2023-05-10T02:48:51.969Z,48.50
2023-05-10T02:49:51.952Z,48.69
2023-05-10T02:50:51.957Z,50.99
2023-05-10T02:51:52.004Z,50.90
2023-05-10T02:52:51.959Z,50.19
2023-05-10T02:53:51.969Z,48.17
2023-05-10T02:54:51.977Z,46.05
2023-05-10T02:55:51.942Z,46.88
2023-05-10T02:56:51.979Z,47.50
2023-05-10T02:57:51.964Z,46.40
2023-05-10T02:58:51.985Z,44.81
2023-05-10T02:59:51.945Z,44.19
2023-05-10T03:00:51.990Z,43.12
2023-05-10T03:01:52.042Z,42.89
2023-05-10T03:02:52.139Z,44.26
2023-05-10T03:03:52.000Z,44.29
2023-05-10T03:04:52.118Z,43.53
2023-05-10T03:05:52.015Z,44.80
2023-05-10T03:06:52.027Z,44.64
2023-05-10T03:07:52.039Z,44.11
2023-05-10T03:08:52.045Z,44.59
2023-05-10T03:09:52.077Z,45.78
2023-05-10T03:10:52.107Z,46.98
2023-05-10T03:11:52.106Z,48.12
2023-05-10T03:12:52.144Z,48.15
2023-05-10T03:13:52.140Z,48.67
2023-05-10T03:14:52.119Z,48.55
2023-05-10T03:15:52.173Z,48.71
2023-05-10T03:16:52.155Z,50.40
2023-05-10T03:17:52.203Z,50.58
2023-05-10T03:18:52.172Z,51.26
2023-05-10T03:19:52.196Z,51.65
2023-05-10T03:20:52.213Z,52.77
2023-05-10T03:21:52.221Z,55.89
2023-05-10T03:22:52.218Z,58.37
2023-05-10T03:23:52.217Z,62.70
2023-05-10T03:24:52.218Z,64.08
2023-05-10T03:25:52.260Z,63.95
2023-05-10T03:26:52.280Z,65.92
2023-05-10T03:27:52.315Z,65.69
2023-05-10T03:28:52.331Z,68.17
2023-05-10T03:29:52.320Z,71.07
2023-05-10T03:30:52.311Z,72.48
2023-05-10T03:31:52.458Z,73.75
2023-05-10T03:32:52.420Z,72.38
2023-05-10T03:33:52.365Z,73.90
2023-05-10T03:34:52.389Z,75.22
2023-05-10T03:35:52.426Z,75.17
2023-05-10T03:36:52.399Z,75.84
2023-05-10T03:37:52.438Z,77.42
2023-05-10T03:38:52.405Z,79.52
2023-05-10T03:39:52.453Z,77.53
2023-05-10T03:40:52.444Z,78.52
2023-05-10T03:41:52.561Z,78.93
2023-05-10T03:42:52.497Z,80.30
2023-05-10T03:43:52.458Z,81.09
2023-05-10T03:44:52.479Z,82.00
2023-05-10T03:45:52.495Z,78.69
2023-05-10T03:46:52.569Z,75.91
2023-05-10T03:47:52.568Z,71.55
2023-05-10T03:48:52.562Z,68.56
2023-05-10T03:49:52.577Z,66.69
2023-05-10T03:50:52.596Z,62.51
2023-05-10T03:51:52.603Z,57.81
2023-05-10T03:52:54.110Z,56.40
2023-05-10T03:53:52.623Z,53.52
2023-05-10T03:54:52.617Z,51.30
2023-05-10T03:55:52.633Z,50.12
2023-05-10T03:56:52.648Z,49.39
2023-05-10T03:57:52.669Z,49.33
2023-05-10T03:58:52.655Z,47.97
2023-05-10T03:59:52.712Z,47.58
2023-05-10T04:00:52.622Z,46.48
2023-05-10T04:01:52.719Z,44.37
2023-05-10T04:02:52.767Z,43.99
2023-05-10T04:03:52.763Z,42.64
2023-05-10T04:04:52.644Z,42.16
2023-05-10T04:05:52.739Z,40.43
2023-05-10T04:06:52.627Z,37.89
2023-05-10T04:07:52.621Z,38.26
2023-05-10T04:08:52.625Z,38.82
2023-05-10T04:09:52.644Z,37.99
2023-05-10T04:10:52.617Z,38.07
2023-05-10T04:11:52.600Z,38.09
2023-05-10T04:12:52.696Z,38.77
2023-05-10T04:13:52.595Z,38.04
2023-05-10T04:14:52.602Z,39.05
2023-05-10T04:15:52.583Z,39.17
2023-05-10T04:16:52.576Z,39.97
2023-05-10T04:17:52.597Z,39.19
2023-05-10T04:18:52.611Z,37.44
2023-05-10T04:19:52.611Z,36.74
2023-05-10T04:20:52.596Z,35.44
2023-05-10T04:21:52.570Z,35.60
2023-05-10T04:22:52.577Z,37.04
2023-05-10T04:23:52.616Z,37.97
2023-05-10T04:24:52.621Z,37.32
2023-05-10T04:25:52.633Z,35.77
2023-05-10T04:26:52.636Z,34.94
2023-05-10T04:27:52.661Z,34.72
2023-05-10T04:28:52.654Z,35.40
2023-05-10T04:29:52.627Z,35.32
2023-05-10T04:30:52.716Z,36.48
2023-05-10T04:31:52.645Z,37.39
2023-05-10T04:32:52.699Z,38.45
2023-05-10T04:33:52.682Z,38.50
2023-05-10T04:34:52.705Z,38.31
2023-05-10T04:35:52.745Z,38.01
2023-05-10T04:36:52.736Z,36.59
2023-05-10T04:37:52.752Z,34.94
2023-05-10T04:38:52.800Z,36.49
2023-05-10T04:39:52.773Z,36.55
2023-05-10T04:40:52.807Z,37.56
2023-05-10T04:41:52.921Z,38.03
2023-05-10T04:42:52.815Z,40.15
2023-05-10T04:43:52.826Z,40.30
2023-05-10T04:44:52.847Z,40.64
2023-05-10T04:45:52.884Z,40.59
2023-05-10T04:46:52.833Z,41.71
2023-05-10T04:47:53.024Z,41.89
2023-05-10T04:48:52.878Z,40.14
2023-05-10T04:49:52.876Z,39.71
2023-05-10T04:50:52.877Z,38.65
2023-05-10T04:51:52.899Z,39.46
2023-05-10T04:52:53.353Z,38.73
2023-05-10T04:54:05.159Z,36.92
2023-05-10T04:54:53.864Z,36.94
2023-05-10T04:55:52.856Z,37.04
2023-05-10T04:56:52.816Z,37.16
2023-05-10T04:57:52.797Z,37.22
2023-05-10T04:58:52.726Z,36.29
2023-05-10T04:59:52.710Z,35.97
2023-05-10T05:01:01.106Z,35.88
2023-05-10T05:01:52.752Z,36.02
2023-05-10T05:02:52.865Z,36.15
2023-05-10T05:03:52.881Z,36.21
2023-05-10T05:04:52.809Z,35.31
2023-05-10T05:05:52.801Z,33.95
2023-05-10T05:06:53.914Z,33.45
2023-05-10T05:07:52.793Z,32.45
2023-05-10T05:08:52.834Z,32.88
2023-05-10T05:09:52.831Z,32.41
2023-05-10T05:10:52.853Z,31.22
2023-05-10T05:11:52.845Z,29.53
2023-05-10T05:12:52.908Z,28.68
2023-05-10T05:13:52.870Z,28.21
2023-05-10T05:14:52.872Z,28.03
2023-05-10T05:15:52.847Z,27.30
2023-05-10T05:16:52.912Z,28.26
2023-05-10T05:17:52.913Z,29.49
2023-05-10T05:18:52.857Z,28.33
2023-05-10T05:19:52.876Z,27.38
2023-05-10T05:20:52.927Z,27.83
2023-05-10T05:21:52.924Z,27.43
2023-05-10T05:22:52.900Z,27.33
2023-05-10T05:23:52.933Z,27.27
2023-05-10T05:24:52.902Z,27.36
2023-05-10T05:25:52.892Z,28.14
2023-05-10T05:26:52.930Z,28.58
2023-05-10T05:27:52.884Z,28.71
2023-05-10T05:28:52.882Z,28.58
2023-05-10T05:29:52.845Z,29.27
2023-05-10T05:30:52.900Z,30.49
2023-05-10T05:31:55.336Z,29.97
2023-05-10T05:32:53.114Z,30.42
2023-05-10T05:33:53.603Z,31.88
2023-05-10T05:34:53.167Z,34.43
2023-05-10T05:35:53.170Z,38.51
2023-05-10T05:36:53.172Z,44.25
2023-05-10T05:37:53.171Z,48.33
2023-05-10T05:38:53.602Z,51.77
2023-05-10T05:39:53.377Z,60.84
2023-05-10T05:40:53.264Z,107.74
2023-05-10T05:41:53.271Z,120.53
2023-05-10T05:42:53.230Z,123.88
2023-05-10T05:43:53.600Z,132.73
2023-05-10T05:44:53.298Z,137.45
2023-05-10T05:46:00.350Z,137.34
2023-05-10T05:46:53.350Z,137.57
2023-05-10T05:47:53.339Z,137.61
2023-05-10T05:48:53.636Z,135.58
2023-05-10T05:49:53.126Z,125.06
2023-05-10T05:50:53.129Z,119.96
2023-05-10T05:51:53.108Z,127.11
2023-05-10T05:52:53.057Z,136.28
2023-05-10T05:53:53.106Z,127.46
2023-05-10T05:54:53.017Z,125.64
2023-05-10T05:55:52.972Z,112.01
2023-05-10T05:56:52.928Z,110.93
2023-05-10T05:57:52.909Z,257.92
2023-05-10T05:58:53.177Z,192.89
2023-05-10T05:59:52.852Z,148.35
2023-05-10T06:00:52.833Z,117.30
2023-05-10T06:01:52.791Z,95.78
2023-05-10T06:02:52.817Z,91.29
2023-05-10T06:03:53.546Z,79.75
2023-05-10T06:04:52.725Z,55.88
2023-05-10T06:05:52.686Z,46.13
2023-05-10T06:06:52.650Z,40.32
2023-05-10T06:07:52.737Z,38.18
2023-05-10T06:08:52.623Z,36.38
2023-05-10T06:09:52.623Z,34.46
2023-05-10T06:10:52.581Z,33.35
2023-05-10T06:11:52.533Z,31.99
2023-05-10T06:12:52.540Z,32.65
2023-05-10T06:13:52.534Z,35.85
2023-05-10T06:14:52.548Z,37.14
2023-05-10T06:15:52.557Z,37.54
2023-05-10T06:16:52.688Z,37.55
2023-05-10T06:17:52.568Z,40.11
2023-05-10T06:18:52.526Z,40.23
2023-05-10T06:19:52.623Z,38.81
2023-05-10T06:20:52.528Z,39.30
2023-05-10T06:21:53.842Z,39.52
2023-05-10T06:22:52.513Z,40.24
2023-05-10T06:23:52.497Z,39.91
2023-05-10T06:24:52.502Z,40.76
2023-05-10T06:25:52.489Z,39.61
2023-05-10T06:26:52.448Z,39.74
2023-05-10T06:27:53.977Z,39.26
2023-05-10T06:28:52.469Z,37.65
2023-05-10T06:30:02.198Z,34.83
2023-05-10T06:30:53.428Z,34.87
2023-05-10T06:31:52.507Z,34.95
2023-05-10T06:32:52.386Z,34.50
2023-05-10T06:33:53.290Z,34.59
2023-05-10T06:34:52.294Z,32.47
2023-05-10T06:35:52.277Z,32.43
2023-05-10T06:36:52.226Z,33.03
2023-05-10T06:37:52.215Z,31.62
2023-05-10T06:38:52.313Z,31.56
2023-05-10T06:39:52.189Z,32.53
2023-05-10T06:40:52.122Z,32.43
2023-05-10T06:41:52.110Z,31.40
2023-05-10T06:42:52.108Z,33.45
2023-05-10T06:43:52.082Z,35.01
2023-05-10T06:44:52.072Z,36.74
2023-05-10T06:45:52.061Z,36.57
2023-05-10T06:46:52.039Z,36.80
2023-05-10T06:47:52.017Z,36.34
2023-05-10T06:48:51.995Z,34.70
2023-05-10T06:49:52.157Z,33.79
2023-05-10T06:50:51.981Z,32.35
2023-05-10T06:51:51.919Z,31.80
2023-05-10T06:52:53.191Z,31.26
2023-05-10T06:53:51.931Z,31.07
2023-05-10T06:54:51.932Z,32.31
2023-05-10T06:55:51.904Z,32.66
2023-05-10T06:56:51.948Z,32.28
2023-05-10T06:57:51.927Z,33.73
2023-05-10T06:58:51.923Z,32.83
2023-05-10T06:59:51.917Z,32.97
2023-05-10T07:00:51.941Z,32.65
2023-05-10T07:01:51.889Z,32.28
2023-05-10T07:02:51.902Z,31.64
2023-05-10T07:03:51.893Z,30.04
2023-05-10T07:04:51.935Z,30.30
2023-05-10T07:05:51.915Z,29.00
2023-05-10T07:06:51.906Z,28.06
2023-05-10T07:07:51.866Z,25.73
2023-05-10T07:08:51.880Z,23.91
2023-05-10T07:09:51.896Z,22.37
2023-05-10T07:10:51.906Z,21.30
2023-05-10T07:11:51.893Z,21.20
2023-05-10T07:12:51.943Z,22.10
2023-05-10T07:13:51.898Z,21.14
2023-05-10T07:14:52.147Z,19.48
2023-05-10T07:15:51.897Z,19.04
2023-05-10T07:16:51.867Z,17.93
2023-05-10T07:17:51.927Z,16.96
2023-05-10T07:18:51.887Z,16.34
2023-05-10T07:19:51.849Z,13.50
2023-05-10T07:20:51.889Z,11.80
2023-05-10T07:21:51.883Z,9.92
2023-05-10T07:22:51.869Z,8.10
2023-05-10T07:23:51.882Z,7.61
2023-05-10T07:24:51.809Z,7.04
2023-05-10T07:25:51.790Z,5.97
2023-05-10T07:26:51.782Z,5.49
2023-05-10T07:27:51.846Z,4.88
2023-05-10T07:28:51.763Z,4.82
2023-05-10T07:29:52.157Z,5.37
2023-05-10T07:30:51.796Z,5.47
2023-05-10T07:31:51.738Z,5.45
2023-05-10T07:32:51.766Z,5.23
2023-05-10T07:33:51.753Z,4.99
2023-05-10T07:34:51.698Z,4.48
2023-05-10T07:35:51.689Z,3.88
2023-05-10T07:36:51.699Z,3.54
2023-05-10T07:37:51.732Z,3.64
2023-05-10T07:38:51.707Z,3.79
2023-05-10T07:39:51.707Z,3.61
2023-05-10T07:40:51.686Z,3.75
2023-05-10T07:41:51.666Z,4.05
2023-05-10T07:42:51.640Z,4.10
2023-05-10T07:43:51.654Z,4.05
2023-05-10T07:44:51.640Z,4.02
2023-05-10T07:45:52.280Z,4.18
2023-05-10T07:46:51.766Z,3.96
2023-05-10T07:47:51.682Z,3.97
2023-05-10T07:48:51.669Z,4.24
2023-05-10T07:49:51.661Z,4.18
2023-05-10T07:50:51.693Z,3.79
2023-05-10T07:51:51.698Z,3.20
2023-05-10T07:52:51.685Z,3.36
2023-05-10T07:53:51.706Z,3.28
2023-05-10T07:54:51.724Z,3.66
2023-05-10T07:55:51.682Z,3.81
2023-05-10T07:56:51.692Z,3.75
2023-05-10T07:57:51.738Z,3.34
2023-05-10T07:58:51.727Z,3.15
2023-05-10T07:59:51.706Z,2.89
2023-05-10T08:00:51.693Z,2.46
2023-05-10T08:01:51.732Z,2.31
2023-05-10T08:02:51.848Z,2.27
2023-05-10T08:03:51.722Z,2.77
2023-05-10T08:04:51.682Z,3.05
2023-05-10T08:05:51.734Z,3.38
2023-05-10T08:06:51.744Z,3.70
2023-05-10T08:07:51.759Z,3.26
2023-05-10T08:08:51.807Z,2.88
2023-05-10T08:09:51.770Z,2.75
2023-05-10T08:10:52.146Z,2.73
2023-05-10T08:11:51.789Z,2.93
2023-05-10T08:12:51.787Z,3.24
2023-05-10T08:13:51.756Z,3.47
2023-05-10T08:14:51.813Z,3.38
2023-05-10T08:15:52.202Z,3.57
2023-05-10T08:16:51.811Z,3.65
2023-05-10T08:17:51.849Z,3.64
2023-05-10T08:18:51.972Z,3.87
2023-05-10T08:19:51.834Z,4.07
2023-05-10T08:20:51.848Z,4.36
2023-05-10T08:21:51.860Z,4.46
2023-05-10T08:22:52.077Z,4.74
2023-05-10T08:23:51.868Z,5.32
2023-05-10T08:24:51.858Z,5.34
2023-05-10T08:25:51.932Z,5.42
2023-05-10T08:26:51.942Z,5.89
2023-05-10T08:27:51.920Z,7.50
2023-05-10T08:28:52.020Z,11.22
2023-05-10T08:29:52.005Z,16.45
2023-05-10T08:30:52.217Z,16.60
2023-05-10T08:31:52.132Z,17.98
2023-05-10T08:32:52.046Z,23.41
2023-05-10T08:33:51.987Z,36.64
2023-05-10T08:34:52.007Z,55.95
2023-05-10T08:35:52.188Z,68.41
2023-05-10T08:36:51.988Z,68.46
2023-05-10T08:37:51.999Z,85.51
2023-05-10T08:38:52.181Z,90.91
2023-05-10T08:39:52.050Z,91.66
2023-05-10T08:40:52.170Z,54.64
2023-05-10T08:41:52.001Z,54.02
2023-05-10T08:42:52.019Z,31.18
2023-05-10T08:43:52.069Z,27.18
2023-05-10T08:44:52.033Z,33.62
2023-05-10T08:45:52.410Z,38.19
2023-05-10T08:46:52.067Z,37.45
2023-05-10T08:47:52.059Z,47.36
2023-05-10T08:48:52.035Z,52.61
2023-05-10T08:49:52.025Z,58.25
2023-05-10T08:50:52.179Z,43.88
2023-05-10T08:51:52.098Z,34.36
2023-05-10T08:52:52.058Z,20.05
2023-05-10T08:53:52.027Z,16.53
2023-05-10T08:54:52.076Z,14.02
2023-05-10T08:55:52.036Z,11.70
2023-05-10T08:56:52.052Z,17.86
2023-05-10T08:57:52.086Z,18.57
2023-05-10T08:58:52.092Z,17.69
2023-05-10T08:59:52.059Z,15.26
2023-05-10T09:00:52.259Z,13.20
2023-05-10T09:01:52.054Z,15.32
2023-05-10T09:02:52.163Z,17.04
2023-05-10T09:03:52.234Z,17.49
2023-05-10T09:04:52.266Z,17.72
2023-05-10T09:05:52.182Z,25.62
2023-05-10T09:06:52.078Z,31.68
2023-05-10T09:07:52.055Z,42.15
2023-05-10T09:08:52.065Z,50.13
2023-05-10T09:09:52.060Z,57.09
2023-05-10T09:10:52.171Z,62.99
2023-05-10T09:11:52.081Z,70.32
2023-05-10T09:12:52.110Z,83.66
2023-05-10T09:13:52.184Z,85.44
2023-05-10T09:14:52.108Z,86.48
2023-05-10T09:15:52.159Z,84.62
2023-05-10T09:16:52.160Z,89.28
2023-05-10T09:17:52.160Z,90.93
2023-05-10T09:18:52.188Z,95.79
2023-05-10T09:19:52.230Z,99.44
2023-05-10T09:20:52.710Z,98.20
2023-05-10T09:21:52.273Z,103.78
2023-05-10T09:22:52.284Z,106.00
2023-05-10T09:23:52.251Z,106.79
2023-05-10T09:24:52.286Z,101.01
2023-05-10T09:25:52.324Z,103.45
2023-05-10T09:26:52.350Z,112.28
2023-05-10T09:27:52.341Z,108.52
2023-05-10T09:28:52.314Z,100.90
2023-05-10T09:29:52.358Z,101.70
2023-05-10T09:30:52.763Z,105.13
2023-05-10T09:31:52.351Z,100.95
2023-05-10T09:32:52.400Z,105.96
2023-05-10T09:33:52.358Z,109.33
2023-05-10T09:34:52.377Z,106.83
2023-05-10T09:35:52.383Z,102.20
2023-05-10T09:36:52.399Z,90.51
2023-05-10T09:37:52.391Z,84.63
2023-05-10T09:38:52.409Z,90.21
2023-05-10T09:39:52.395Z,96.54
2023-05-10T09:40:52.684Z,95.72
2023-05-10T09:41:52.417Z,81.76
2023-05-10T09:42:52.463Z,74.67
2023-05-10T09:43:52.472Z,74.07
2023-05-10T09:44:52.446Z,72.34
2023-05-10T09:45:52.500Z,74.61
2023-05-10T09:46:52.484Z,78.11
2023-05-10T09:47:52.496Z,83.63
2023-05-10T09:48:52.486Z,83.29
2023-05-10T09:49:52.475Z,61.21
2023-05-10T09:50:52.740Z,55.46
2023-05-10T09:51:52.497Z,45.41
2023-05-10T09:52:52.480Z,40.09
2023-05-10T09:53:52.513Z,39.89
2023-05-10T09:54:53.451Z,34.59
2023-05-10T09:55:52.418Z,33.91
2023-05-10T09:56:52.698Z,35.22
2023-05-10T09:57:52.353Z,25.18
2023-05-10T09:58:52.311Z,20.35
2023-05-10T09:59:52.320Z,20.03
2023-05-10T10:00:52.262Z,19.07
2023-05-10T10:01:52.318Z,19.82
2023-05-10T10:02:52.210Z,21.50
2023-05-10T10:03:52.168Z,21.52
2023-05-10T10:04:52.155Z,20.10
2023-05-10T10:05:52.159Z,16.71
2023-05-10T10:06:52.164Z,15.74
2023-05-10T10:07:52.177Z,16.15
2023-05-10T10:08:52.190Z,18.54
2023-05-10T10:09:52.223Z,14.93
2023-05-10T10:10:52.295Z,15.01
2023-05-10T10:11:52.755Z,13.93
2023-05-10T10:12:52.298Z,12.39
2023-05-10T10:13:52.242Z,11.57
2023-05-10T10:14:52.247Z,12.62
2023-05-10T10:15:52.382Z,14.22
2023-05-10T10:17:05.546Z,12.08
2023-05-10T10:17:53.297Z,10.66
2023-05-10T10:18:52.265Z,7.68
2023-05-10T10:19:52.264Z,6.48
2023-05-10T10:20:52.279Z,5.24
2023-05-10T10:21:52.329Z,4.12
2023-05-10T10:22:52.283Z,3.32
2023-05-10T10:23:52.279Z,3.13
2023-05-10T10:24:52.297Z,3.44
2023-05-10T10:25:52.345Z,4.64
2023-05-10T10:26:52.314Z,5.15
2023-05-10T10:27:52.293Z,4.81
2023-05-10T10:28:52.282Z,3.65
2023-05-10T10:29:52.301Z,3.15
2023-05-10T10:30:52.299Z,2.25
2023-05-10T10:31:52.355Z,1.50
2023-05-10T10:32:52.273Z,1.23
2023-05-10T10:33:52.321Z,1.18
2023-05-10T10:34:52.298Z,1.63
2023-05-10T10:35:52.301Z,1.87
2023-05-10T10:36:52.712Z,1.60
2023-05-10T10:37:52.358Z,1.47
2023-05-10T10:38:52.350Z,1.46
2023-05-10T10:39:52.356Z,1.58
2023-05-10T10:40:52.371Z,1.55
2023-05-10T10:41:52.717Z,1.95
2023-05-10T10:42:52.376Z,2.56
2023-05-10T10:43:52.405Z,2.52
2023-05-10T10:44:52.425Z,2.32
2023-05-10T10:45:52.464Z,2.23
2023-05-10T10:46:52.873Z,2.14
2023-05-10T10:47:52.555Z,2.30
2023-05-10T10:48:52.657Z,2.16
2023-05-10T10:49:52.596Z,2.05
2023-05-10T10:50:52.595Z,2.28
2023-05-10T10:51:52.610Z,2.26
2023-05-10T10:52:52.682Z,2.19
2023-05-10T10:53:52.716Z,2.07
2023-05-10T10:54:52.725Z,2.09
2023-05-10T10:55:52.713Z,4.73
2023-05-10T10:56:52.746Z,6.92
2023-05-10T10:57:52.807Z,6.62
2023-05-10T10:58:52.798Z,5.03
2023-05-10T10:59:52.760Z,4.73
2023-05-10T11:00:52.835Z,3.58
2023-05-10T11:01:52.882Z,2.93
2023-05-10T11:02:52.917Z,2.09
2023-05-10T11:03:52.955Z,1.72
2023-05-10T11:04:52.977Z,1.36
2023-05-10T11:05:52.998Z,1.26
2023-05-10T11:06:53.262Z,1.01
2023-05-10T11:07:53.035Z,0.97
2023-05-10T11:08:53.099Z,0.96
2023-05-10T11:09:53.099Z,0.92
2023-05-10T11:10:53.213Z,1.03
2023-05-10T11:11:53.130Z,1.10
2023-05-10T11:12:53.220Z,1.10
2023-05-10T11:13:53.286Z,1.07
2023-05-10T11:14:53.311Z,1.04
2023-05-10T11:15:53.280Z,1.04
2023-05-10T11:16:53.399Z,1.24
2023-05-10T11:17:53.373Z,1.14
2023-05-10T11:18:53.436Z,1.14
2023-05-10T11:19:53.422Z,1.21
2023-05-10T11:20:53.410Z,1.82
2023-05-10T11:21:53.470Z,7.09
2023-05-10T11:22:53.471Z,10.33
2023-05-10T11:23:53.517Z,16.73
2023-05-10T11:24:53.560Z,20.20
2023-05-10T11:25:53.432Z,17.26
2023-05-10T11:26:53.428Z,20.00
2023-05-10T11:27:53.751Z,20.79
2023-05-10T11:28:53.448Z,21.23
2023-05-10T11:29:53.418Z,21.01
2023-05-10T11:30:53.534Z,22.57
2023-05-10T11:31:53.694Z,23.25
2023-05-10T11:32:53.775Z,25.41
2023-05-10T11:33:54.247Z,26.30
2023-05-10T11:34:53.385Z,26.58
2023-05-10T11:35:53.462Z,28.31
2023-05-10T11:36:53.940Z,31.68
2023-05-10T11:37:53.764Z,32.82
2023-05-10T11:38:53.370Z,33.49
2023-05-10T11:39:54.239Z,35.34
2023-05-10T11:40:53.382Z,36.95
2023-05-10T11:41:53.392Z,34.41
2023-05-10T11:42:53.390Z,31.80
2023-05-10T11:43:53.414Z,31.26
2023-05-10T11:44:53.402Z,32.42
2023-05-10T11:45:53.410Z,34.36
2023-05-10T11:46:53.415Z,36.17
2023-05-10T11:47:53.454Z,34.57
2023-05-10T11:48:53.387Z,32.19
2023-05-10T11:49:53.436Z,27.21
2023-05-10T11:50:53.411Z,24.54
2023-05-10T11:51:53.453Z,24.46
2023-05-10T11:52:53.403Z,24.41
2023-05-10T11:53:53.424Z,23.60
2023-05-10T11:54:53.435Z,21.01
2023-05-10T11:55:53.416Z,19.09
2023-05-10T11:56:53.440Z,18.87
2023-05-10T11:57:53.432Z,19.81
2023-05-10T11:58:53.460Z,17.80
2023-05-10T11:59:53.448Z,15.42
2023-05-10T12:00:53.409Z,14.56
2023-05-10T12:01:53.415Z,13.50
2023-05-10T12:02:53.481Z,13.26
2023-05-10T12:03:53.462Z,13.19
2023-05-10T12:04:53.396Z,13.31
2023-05-10T12:05:53.377Z,13.05
2023-05-10T12:06:53.405Z,12.82
2023-05-10T12:07:53.404Z,12.37
2023-05-10T12:08:53.655Z,12.91
2023-05-10T12:09:53.405Z,12.93
2023-05-10T12:10:53.385Z,14.01
2023-05-10T12:11:53.367Z,14.93
2023-05-10T12:12:53.382Z,15.67
2023-05-10T12:13:53.397Z,16.48
2023-05-10T12:14:53.681Z,16.63
2023-05-10T12:15:53.503Z,16.25
2023-05-10T12:16:53.614Z,16.37
2023-05-10T12:17:53.435Z,15.80
2023-05-10T12:18:53.423Z,15.05
2023-05-10T12:19:53.356Z,15.59
2023-05-10T12:20:53.381Z,15.47
2023-05-10T12:21:53.351Z,15.18
2023-05-10T12:22:53.448Z,14.31
2023-05-10T12:23:53.368Z,14.33
2023-05-10T12:24:53.364Z,13.96
2023-05-10T12:25:53.339Z,14.12
2023-05-10T12:26:53.450Z,14.09
2023-05-10T12:27:53.401Z,13.53
2023-05-10T12:28:53.430Z,13.52
2023-05-10T12:29:53.481Z,13.13
2023-05-10T12:30:53.331Z,13.38
2023-05-10T12:31:53.490Z,13.17
2023-05-10T12:32:53.359Z,12.88
2023-05-10T12:33:53.333Z,12.55
2023-05-10T12:34:53.359Z,12.86
2023-05-10T12:35:53.339Z,13.10
2023-05-10T12:36:53.367Z,12.49
2023-05-10T12:37:53.313Z,11.75
2023-05-10T12:38:53.326Z,11.41
2023-05-10T12:39:53.332Z,11.13
2023-05-10T12:40:53.398Z,10.95
2023-05-10T12:41:53.342Z,10.81
2023-05-10T12:42:53.494Z,10.70
2023-05-10T12:43:53.357Z,11.72
2023-05-10T12:44:53.364Z,13.28
2023-05-10T12:45:53.430Z,13.45
2023-05-10T12:46:53.337Z,15.36
2023-05-10T12:47:53.380Z,17.04
2023-05-10T12:49:03.213Z,18.45
2023-05-10T12:49:54.327Z,18.54
2023-05-10T12:50:53.342Z,19.73
2023-05-10T12:51:53.295Z,21.96
2023-05-10T12:52:53.253Z,25.73
2023-05-10T12:53:53.235Z,30.55
2023-05-10T12:54:53.196Z,30.68